Station info - map view · info · telemetry · weather · raw · status · beacons · messages · bulletins · browse · moving · my account
Callsign, ship name or locator: Clear       
It is possible to search using wildcards (*?) after a prefix. Example: OH*
APRS station SP2MKR-9 - show graphs
Map loading...
Comment: 439.700MHz Janek Niemcz
Mic-E message: En route
Location: 53°10.79' N 18°01.30' E - locator JO93AE23OD - show map - static map
2.6 miles West bearing 262° from Osielsko, Powiat bydgoski, Kujawsko-Pomorskie, Poland [?]
3.9 miles North bearing 9° from Bydgoszcz, Bydgoszcz, Kujawsko-Pomorskie, Poland
6.5 miles West bearing 290° from Fordon, Bydgoszcz, Kujawsko-Pomorskie, Poland
70.2 miles Northeast bearing 40° from Poznań, Poznań, Greater Poland Voivodeship, Poland
Last position: 2020-09-27 08:31:57 EDT (1d 6h7m ago)
2020-09-27 14:31:57 CEST local time at Osielsko, Poland [?]
Altitude: 262 ft
Course: 286°
Speed: 24 MPH
Device: Kenwood: TM-D710 (rig)
Last path: SP2MKR-9>US1P79 via WIDE1-1,WIDE2-2,qAR,SP2GG-4 (good)
Positions stored: 57127
Packet rate: 68 seconds between packets on average during 1017 seconds.
Other SSIDs: SP2MKR-10 SP2MKR-4 SP2MKR-7
Stations near current position of SP2MKR-9 - show more
callsign distance last heard - EDT      callsign distance last heard - EDT
SP2MKR-452.5 yards 248°2020-09-28 13:52:15 A7625A-84170.9 yards 83°2020-09-04 13:09:29
S22PZK-10218.5 yards 42°2020-09-04 11:58:57 A1185A-9271.8 yards 126°2020-09-04 12:44:29
B1222A-220.3 miles 88°2020-09-04 13:08:18 CI893PY-60.5 miles 315°2020-09-04 12:58:24
CI88PY-10.8 miles 99°2020-09-04 13:13:26 A4159A-60.8 miles 136°2020-09-04 12:56:04
B2067A-900.8 miles 334°2020-09-04 13:22:23 CI1PA-260.9 miles 115°2020-09-04 12:57:43
B1224A-840.9 miles 282°2020-09-04 13:08:21 B170A-281.0 miles 17°2020-09-04 13:15:04
A6923A-161.0 miles 359°2020-09-04 13:06:49 A5631A-761.0 miles 52°2020-09-04 13:01:49
A3205A-911.0 miles 235°2020-09-04 12:52:22 B2750A-241.0 miles 192°2020-09-04 13:25:01
B314A-861.1 miles 291°2020-09-04 13:15:31 D1142A-261.1 miles 296°2020-09-04 13:22:22
B2290A-331.1 miles 132°2020-09-04 13:23:15 A1286A-761.1 miles 302°2020-09-04 12:44:53
Stations which heard SP2MKR-9 directly on radio –
callsign pkts first heard - EDT last heard longest (tx => rx) longest at - EDT
SR4DOS 31 2020-09-02 03:17:12 2020-09-20 13:53:11 JO93AD > JO93XN 84.6 miles 69° 2020-09-20 04:13:17
SP2ZIE-2 6 2020-09-20 07:20:10 2020-09-20 09:02:10 JO94GM > JO94GM 1.4 miles 290° 2020-09-20 07:23:54
SR2NWG 92 2020-09-20 06:28:16 2020-09-20 12:51:22 JO93HS > JO94HI 41.9 miles 358° 2020-09-20 06:28:16
SR2NRH-4 7 2020-09-02 03:25:55 2020-09-02 03:45:22 JO92PV > JO92NU 8.3 miles 250° 2020-09-02 03:45:22
SR5NLK 28 2020-09-02 05:13:05 2020-09-02 12:34:14 KO02NH > KO02LJ 10.8 miles 296° 2020-09-02 11:45:25
SP2MKR-4 26 2020-09-14 10:10:09 2020-09-27 08:31:00 JO83XD > JO93AE 4.0 miles 21° 2020-09-27 05:56:09
SR2DDU 12 2020-09-02 14:39:59 2020-09-26 03:08:33 JO93IA > JO82VP 46.3 miles 235° 2020-09-02 14:39:59
SR2W 35 2020-09-02 02:43:44 2020-09-02 14:46:41 JO93HA > JO92MP 31.1 miles 149° 2020-09-02 14:46:41
SR5DLA 20 2020-09-02 05:08:57 2020-09-02 12:15:08 KO02HK > KO02NM 19.9 miles 71° 2020-09-02 05:08:57
SR5NWR 12 2020-09-02 04:53:49 2020-09-02 12:49:11 KO02EO > KO02QV 45.8 miles 64° 2020-09-02 04:53:49
SP2GG-4 795 2020-09-01 05:52:46 2020-09-27 08:31:57 JO93GK > JO83VA 43.6 miles 228° 2020-09-20 13:20:12
SR5ZU 62 2020-09-02 03:52:54 2020-09-02 13:49:42 KO02FO > JO93WB 39.6 miles 325° 2020-09-02 12:52:56
SR5DLA-2 31 2020-09-02 05:08:55 2020-09-02 12:19:39 KO02HK > KO02MM 19.8 miles 70° 2020-09-02 05:08:55
SP2YWL-2 2 2020-09-20 07:07:13 2020-09-20 07:21:51 JO94FL > JO94ES 21.6 miles 353° 2020-09-20 07:07:13
SR5NEB 9 2020-09-02 04:56:47 2020-09-02 12:47:10 KO02FN > KO02HC 33.5 miles 169° 2020-09-02 04:56:47
SQ2MTG 2 2020-09-20 07:07:44 2020-09-20 12:21:38 JO94FL > JO94EJ 6.6 miles 213° 2020-09-20 07:07:44
SR5ND 31 2020-09-02 04:58:17 2020-09-02 12:46:10 KO02FN > KO02JK 15.0 miles 125° 2020-09-02 04:58:17
SP2KMH 11 2020-09-20 06:07:05 2020-09-20 12:53:54 JO93HN > JO93JV 25.0 miles 18° 2020-09-20 06:07:05
SP5ME-1 5 2020-09-02 11:38:24 2020-09-02 11:50:49 KO02OH > KO02MG 6.3 miles 247° 2020-09-02 11:38:24
SR2INO 3 2020-09-02 02:43:44 2020-09-07 05:16:00 JO93IA > JO92CT 26.3 miles 230° 2020-09-02 02:56:37
SR5NWA 45 2020-09-02 04:56:48 2020-09-02 12:45:25 KO02FN > KO02MD 37.6 miles 141° 2020-09-02 04:56:48
SR5NJA 13 2020-09-02 05:41:51 2020-09-02 12:22:42 KO02JL > KO02LL 6.6 miles 89° 2020-09-02 12:22:42
SQ5RTW-2 2 2020-09-02 05:17:09 2020-09-02 12:36:15 KO02IK > KO02IK 1.9 miles 274° 2020-09-02 05:17:09
SP5KAB-2 11 2020-09-02 04:55:48 2020-09-02 12:25:48 KO02FO > KO02NG 35.9 miles 127° 2020-09-02 04:55:48
SQ5BIH-1 1 2020-09-02 05:29:15 2020-09-02 05:29:15 KO02KK > KO02JH 11.3 miles 192° 2020-09-02 05:29:15
SP5WWL-2 27 2020-09-02 05:46:51 2020-09-02 12:01:02 KO02LK > KO02NI 9.2 miles 131° 2020-09-02 05:46:51

Only position packets which were originated by the station are shown here. The range statistics show some extra long hops, because some digipeaters do not correctly add themselves to the digipeater path. Please check the raw packets.
About this site
This page shows real-time information collected from the Automatic Position Reporting System Internet network (APRS-IS). APRS is used by amateur (ham) radio operators to transmit real-time position information, weather data, telemetry and messages over the radio. A vehicle equipped with a GPS receiver, a VHF transmitter or HF transceiver and a small computer device called a tracker transmits it's location, speed and course in a small data packet, which is then received by a nearby iGate receiving site which forwards the packet on the Internet. Systems connected to the Internet can send information on the APRS-IS without a radio transmitter, or collect and display information transmitted anywhere in the world.
User guide · FAQ · Blog · Discussion group · Linking to aprs.fi · AIS sites · Service status · Database statistics · Advertising on aprs.fi · Technical details · API · Change log · Planned changes · Credits and thanks · Terms Of Service · iPhone/iPad APRS